ESMT/HAD METAR and TAF weather

Enter ICAO airport designator
Station Type Date Time Source
ESMT METAR 2019/10/18 06:20 UTC NOAA

ESMT 180620Z 10007KT 9000 -RA FEW048 SCT059 09/08 Q1008


Station Type Date Time Source
ESMT Decoded METAR 2019/10/18 06:20 UTC NOAA

Halmstad Swedish Air Force Base , Sweden (ESMT) 56-41N 012-50E
Oct 18, 2019 - 02:20 AM EDT / 2019.10.18 0620 UTC
Wind: from the E (100 degrees) at 8 MPH (7 KT):0
Visibility: 5 mile(s):0
Sky conditions: partly cloudy
Weather: light rain
Temperature: 48 F (9 C)
Dew Point: 46 F (8 C)
Relative Humidity: 93%
Pressure (altimeter): 29.77 in. Hg (1008 hPa)
ob: ESMT 180620Z 10007KT 9000 -RA FEW048 SCT059 09/08 Q1008
cycle: 6

Station Type Date Time Source
ESMT TAF 2017/04/24 06:33 UTC NOAA

TAF TAF ESMT 240513Z 2406/2506 22018KT 9999 BKN018
TEMPO 2406/2413 22018G30KT 4000 RADZ BKN008
TEMPO 2413/2415 24020G30KT 4000 SHRA BKN014 SCT020CB

Example: see airport list